sensor_id;sensor_type;location;lat;lon;timestamp;P1;durP1;ratioP1;P2;durP2;ratioP2
64186;SDS011;50491;39.484;-8.540;2022-12-18T00:01:43;13.98;;;9.85;;
64186;SDS011;50491;39.484;-8.540;2022-12-18T00:03:44;14.43;;;9.07;;
64186;SDS011;50491;39.484;-8.540;2022-12-18T00:05:48;12.18;;;8.73;;
64186;SDS011;50491;39.484;-8.540;2022-12-18T00:10:09;10.93;;;8.32;;
64186;SDS011;50491;39.484;-8.540;2022-12-18T00:12:27;14.52;;;9.20;;
64186;SDS011;50491;39.484;-8.540;2022-12-18T00:14:46;11.73;;;8.48;;
64186;SDS011;50491;39.484;-8.540;2022-12-18T00:17:05;14.90;;;9.75;;
64186;SDS011;50491;39.484;-8.540;2022-12-18T00:19:06;15.15;;;9.18;;
64186;SDS011;50491;39.484;-8.540;2022-12-18T00:21:08;17.55;;;9.88;;
64186;SDS011;50491;39.484;-8.540;2022-12-18T00:23:10;12.30;;;9.50;;
64186;SDS011;50491;39.484;-8.540;2022-12-18T00:25:10;13.48;;;9.57;;
64186;SDS011;50491;39.484;-8.540;2022-12-18T00:27:11;16.65;;;11.38;;
64186;SDS011;50491;39.484;-8.540;2022-12-18T00:29:18;13.98;;;10.27;;
64186;SDS011;50491;39.484;-8.540;2022-12-18T00:31:20;14.20;;;9.93;;
64186;SDS011;50491;39.484;-8.540;2022-12-18T00:33:22;16.52;;;9.55;;
64186;SDS011;50491;39.484;-8.540;2022-12-18T00:35:23;12.82;;;8.80;;
64186;SDS011;50491;39.484;-8.540;2022-12-18T00:37:23;12.30;;;8.55;;
64186;SDS011;50491;39.484;-8.540;2022-12-18T00:39:33;15.23;;;9.05;;
64186;SDS011;50491;39.484;-8.540;2022-12-18T00:41:59;16.88;;;10.43;;
64186;SDS011;50491;39.484;-8.540;2022-12-18T00:44:18;15.40;;;10.27;;
64186;SDS011;50491;39.484;-8.540;2022-12-18T00:46:37;21.85;;;11.85;;
64186;SDS011;50491;39.484;-8.540;2022-12-18T00:48:38;18.90;;;10.68;;
64186;SDS011;50491;39.484;-8.540;2022-12-18T00:50:57;15.27;;;11.55;;
64186;SDS011;50491;39.484;-8.540;2022-12-18T00:52:58;17.08;;;11.90;;
64186;SDS011;50491;39.484;-8.540;2022-12-18T00:54:59;19.42;;;11.57;;
64186;SDS011;50491;39.484;-8.540;2022-12-18T00:56:59;15.88;;;10.55;;
64186;SDS011;50491;39.484;-8.540;2022-12-18T00:59:25;22.13;;;12.60;;
64186;SDS011;50491;39.484;-8.540;2022-12-18T01:01:31;14.90;;;9.77;;
64186;SDS011;50491;39.484;-8.540;2022-12-18T01:03:32;14.35;;;10.32;;
64186;SDS011;50491;39.484;-8.540;2022-12-18T01:05:33;15.60;;;9.48;;
64186;SDS011;50491;39.484;-8.540;2022-12-18T01:07:34;12.48;;;9.90;;
64186;SDS011;50491;39.484;-8.540;2022-12-18T01:09:36;11.65;;;8.75;;
64186;SDS011;50491;39.484;-8.540;2022-12-18T01:11:55;13.52;;;9.10;;
64186;SDS011;50491;39.484;-8.540;2022-12-18T01:14:14;12.32;;;8.98;;
64186;SDS011;50491;39.484;-8.540;2022-12-18T01:16:16;10.98;;;8.80;;
64186;SDS011;50491;39.484;-8.540;2022-12-18T01:18:43;16.08;;;10.05;;
64186;SDS011;50491;39.484;-8.540;2022-12-18T01:20:43;14.63;;;9.70;;
64186;SDS011;50491;39.484;-8.540;2022-12-18T01:22:44;11.65;;;8.95;;
64186;SDS011;50491;39.484;-8.540;2022-12-18T01:24:45;13.40;;;9.00;;
64186;SDS011;50491;39.484;-8.540;2022-12-18T01:26:45;19.77;;;10.95;;
64186;SDS011;50491;39.484;-8.540;2022-12-18T01:29:05;17.02;;;9.73;;
64186;SDS011;50491;39.484;-8.540;2022-12-18T01:33:31;17.73;;;11.45;;
64186;SDS011;50491;39.484;-8.540;2022-12-18T01:35:31;20.60;;;12.27;;
64186;SDS011;50491;39.484;-8.540;2022-12-18T01:37:32;18.75;;;12.57;;
64186;SDS011;50491;39.484;-8.540;2022-12-18T01:39:33;18.05;;;12.23;;
64186;SDS011;50491;39.484;-8.540;2022-12-18T01:41:34;15.45;;;10.77;;
64186;SDS011;50491;39.484;-8.540;2022-12-18T01:46:49;13.50;;;10.57;;
64186;SDS011;50491;39.484;-8.540;2022-12-18T01:48:51;19.23;;;10.77;;
64186;SDS011;50491;39.484;-8.540;2022-12-18T01:50:54;21.35;;;11.20;;
64186;SDS011;50491;39.484;-8.540;2022-12-18T01:53:00;12.13;;;8.90;;
64186;SDS011;50491;39.484;-8.540;2022-12-18T01:55:04;15.63;;;9.18;;
64186;SDS011;50491;39.484;-8.540;2022-12-18T01:57:06;16.83;;;9.73;;
64186;SDS011;50491;39.484;-8.540;2022-12-18T01:59:07;13.93;;;9.32;;
64186;SDS011;50491;39.484;-8.540;2022-12-18T02:01:10;15.82;;;10.80;;
64186;SDS011;50491;39.484;-8.540;2022-12-18T02:03:11;14.82;;;9.82;;
64186;SDS011;50491;39.484;-8.540;2022-12-18T02:05:12;19.20;;;12.45;;
64186;SDS011;50491;39.484;-8.540;2022-12-18T02:07:25;20.55;;;11.55;;
64186;SDS011;50491;39.484;-8.540;2022-12-18T02:10:00;18.50;;;11.05;;
64186;SDS011;50491;39.484;-8.540;2022-12-18T02:12:09;15.88;;;10.73;;
64186;SDS011;50491;39.484;-8.540;2022-12-18T02:14:38;16.55;;;11.18;;
64186;SDS011;50491;39.484;-8.540;2022-12-18T02:21:01;17.02;;;11.25;;
64186;SDS011;50491;39.484;-8.540;2022-12-18T02:28:09;19.90;;;11.32;;
64186;SDS011;50491;39.484;-8.540;2022-12-18T02:30:12;14.50;;;9.70;;
64186;SDS011;50491;39.484;-8.540;2022-12-18T02:32:38;15.32;;;9.90;;
64186;SDS011;50491;39.484;-8.540;2022-12-18T02:34:42;17.90;;;10.48;;
64186;SDS011;50491;39.484;-8.540;2022-12-18T02:36:47;15.85;;;10.25;;
64186;SDS011;50491;39.484;-8.540;2022-12-18T02:39:08;17.42;;;11.48;;
64186;SDS011;50491;39.484;-8.540;2022-12-18T02:41:29;14.25;;;9.30;;
64186;SDS011;50491;39.484;-8.540;2022-12-18T02:43:50;15.98;;;9.75;;
64186;SDS011;50491;39.484;-8.540;2022-12-18T02:46:33;15.00;;;10.25;;
64186;SDS011;50491;39.484;-8.540;2022-12-18T02:48:41;17.60;;;11.50;;
64186;SDS011;50491;39.484;-8.540;2022-12-18T02:50:44;16.05;;;10.70;;
64186;SDS011;50491;39.484;-8.540;2022-12-18T02:58:16;15.82;;;9.85;;
64186;SDS011;50491;39.484;-8.540;2022-12-18T03:00:45;15.73;;;9.45;;
64186;SDS011;50491;39.484;-8.540;2022-12-18T03:02:53;11.90;;;8.55;;
64186;SDS011;50491;39.484;-8.540;2022-12-18T03:08:03;10.70;;;7.53;;
64186;SDS011;50491;39.484;-8.540;2022-12-18T03:10:11;12.05;;;8.23;;
64186;SDS011;50491;39.484;-8.540;2022-12-18T03:14:44;11.30;;;8.18;;
64186;SDS011;50491;39.484;-8.540;2022-12-18T03:16:47;11.35;;;8.27;;
64186;SDS011;50491;39.484;-8.540;2022-12-18T03:21:29;10.60;;;7.22;;
64186;SDS011;50491;39.484;-8.540;2022-12-18T03:23:48;11.18;;;8.05;;
64186;SDS011;50491;39.484;-8.540;2022-12-18T03:25:51;11.13;;;7.57;;
64186;SDS011;50491;39.484;-8.540;2022-12-18T03:28:21;10.88;;;8.07;;
64186;SDS011;50491;39.484;-8.540;2022-12-18T03:30:33;7.97;;;6.13;;
64186;SDS011;50491;39.484;-8.540;2022-12-18T03:35:21;10.45;;;7.35;;
64186;SDS011;50491;39.484;-8.540;2022-12-18T03:37:43;11.10;;;6.75;;
64186;SDS011;50491;39.484;-8.540;2022-12-18T03:39:43;10.07;;;7.47;;
64186;SDS011;50491;39.484;-8.540;2022-12-18T03:41:50;11.98;;;8.13;;
64186;SDS011;50491;39.484;-8.540;2022-12-18T03:46:08;9.50;;;7.45;;
64186;SDS011;50491;39.484;-8.540;2022-12-18T03:48:22;11.98;;;7.00;;
64186;SDS011;50491;39.484;-8.540;2022-12-18T03:55:53;11.43;;;7.82;;
64186;SDS011;50491;39.484;-8.540;2022-12-18T03:58:06;11.13;;;7.80;;
64186;SDS011;50491;39.484;-8.540;2022-12-18T04:00:22;12.90;;;7.32;;
64186;SDS011;50491;39.484;-8.540;2022-12-18T04:02:43;12.32;;;7.47;;
64186;SDS011;50491;39.484;-8.540;2022-12-18T04:04:48;9.65;;;7.57;;
64186;SDS011;50491;39.484;-8.540;2022-12-18T04:06:54;10.43;;;7.18;;
64186;SDS011;50491;39.484;-8.540;2022-12-18T04:08:57;10.52;;;7.38;;
64186;SDS011;50491;39.484;-8.540;2022-12-18T04:10:59;11.77;;;8.02;;
64186;SDS011;50491;39.484;-8.540;2022-12-18T04:13:00;10.07;;;7.63;;
64186;SDS011;50491;39.484;-8.540;2022-12-18T04:15:02;10.85;;;8.57;;
64186;SDS011;50491;39.484;-8.540;2022-12-18T04:17:03;9.88;;;7.60;;
64186;SDS011;50491;39.484;-8.540;2022-12-18T04:19:06;8.93;;;7.22;;
64186;SDS011;50491;39.484;-8.540;2022-12-18T04:21:12;9.77;;;7.53;;
64186;SDS011;50491;39.484;-8.540;2022-12-18T04:23:13;9.18;;;7.55;;
64186;SDS011;50491;39.484;-8.540;2022-12-18T04:25:32;18.63;;;8.40;;
64186;SDS011;50491;39.484;-8.540;2022-12-18T04:27:42;10.18;;;7.75;;
64186;SDS011;50491;39.484;-8.540;2022-12-18T04:29:43;13.85;;;7.30;;
64186;SDS011;50491;39.484;-8.540;2022-12-18T04:31:44;13.07;;;8.35;;
64186;SDS011;50491;39.484;-8.540;2022-12-18T04:33:45;11.43;;;8.38;;
64186;SDS011;50491;39.484;-8.540;2022-12-18T04:35:47;12.52;;;8.75;;
64186;SDS011;50491;39.484;-8.540;2022-12-18T04:37:47;9.60;;;7.18;;
64186;SDS011;50491;39.484;-8.540;2022-12-18T04:39:49;14.10;;;8.73;;
64186;SDS011;50491;39.484;-8.540;2022-12-18T04:42:00;10.15;;;7.72;;
64186;SDS011;50491;39.484;-8.540;2022-12-18T04:44:00;9.45;;;7.05;;
64186;SDS011;50491;39.484;-8.540;2022-12-18T04:46:04;10.35;;;6.78;;
64186;SDS011;50491;39.484;-8.540;2022-12-18T04:48:06;10.75;;;7.75;;
64186;SDS011;50491;39.484;-8.540;2022-12-18T04:50:07;10.02;;;6.60;;
64186;SDS011;50491;39.484;-8.540;2022-12-18T04:52:08;10.05;;;7.95;;
64186;SDS011;50491;39.484;-8.540;2022-12-18T04:54:08;9.60;;;7.18;;
64186;SDS011;50491;39.484;-8.540;2022-12-18T04:56:10;12.10;;;7.60;;
64186;SDS011;50491;39.484;-8.540;2022-12-18T04:58:14;10.60;;;6.97;;
64186;SDS011;50491;39.484;-8.540;2022-12-18T05:00:15;8.98;;;6.47;;
64186;SDS011;50491;39.484;-8.540;2022-12-18T05:02:16;13.65;;;8.05;;
64186;SDS011;50491;39.484;-8.540;2022-12-18T05:04:16;10.63;;;6.05;;
64186;SDS011;50491;39.484;-8.540;2022-12-18T05:06:17;11.68;;;7.50;;
64186;SDS011;50491;39.484;-8.540;2022-12-18T05:08:36;12.05;;;7.50;;
64186;SDS011;50491;39.484;-8.540;2022-12-18T05:11:03;11.27;;;7.32;;
64186;SDS011;50491;39.484;-8.540;2022-12-18T05:13:23;9.20;;;7.13;;
64186;SDS011;50491;39.484;-8.540;2022-12-18T05:15:27;9.95;;;7.75;;
64186;SDS011;50491;39.484;-8.540;2022-12-18T05:17:50;12.98;;;7.70;;
64186;SDS011;50491;39.484;-8.540;2022-12-18T05:20:09;9.05;;;6.70;;
64186;SDS011;50491;39.484;-8.540;2022-12-18T05:22:28;12.55;;;6.45;;
64186;SDS011;50491;39.484;-8.540;2022-12-18T05:24:47;9.60;;;6.20;;
64186;SDS011;50491;39.484;-8.540;2022-12-18T05:26:48;9.10;;;6.43;;
64186;SDS011;50491;39.484;-8.540;2022-12-18T05:29:07;9.52;;;6.68;;
64186;SDS011;50491;39.484;-8.540;2022-12-18T05:31:26;10.88;;;7.10;;
64186;SDS011;50491;39.484;-8.540;2022-12-18T05:33:28;9.55;;;7.38;;
64186;SDS011;50491;39.484;-8.540;2022-12-18T05:35:56;8.73;;;7.03;;
64186;SDS011;50491;39.484;-8.540;2022-12-18T05:37:57;10.65;;;6.88;;
64186;SDS011;50491;39.484;-8.540;2022-12-18T05:39:58;9.00;;;7.00;;
64186;SDS011;50491;39.484;-8.540;2022-12-18T05:41:59;9.85;;;6.28;;
64186;SDS011;50491;39.484;-8.540;2022-12-18T05:43:59;9.85;;;6.85;;
64186;SDS011;50491;39.484;-8.540;2022-12-18T05:46:04;11.80;;;7.07;;
64186;SDS011;50491;39.484;-8.540;2022-12-18T05:48:05;10.95;;;6.32;;
64186;SDS011;50491;39.484;-8.540;2022-12-18T05:50:12;13.23;;;6.60;;
64186;SDS011;50491;39.484;-8.540;2022-12-18T05:52:12;9.73;;;6.00;;
64186;SDS011;50491;39.484;-8.540;2022-12-18T05:56:50;8.80;;;7.00;;
64186;SDS011;50491;39.484;-8.540;2022-12-18T05:59:09;8.38;;;6.18;;
64186;SDS011;50491;39.484;-8.540;2022-12-18T06:03:12;12.07;;;6.72;;
64186;SDS011;50491;39.484;-8.540;2022-12-18T06:05:13;10.13;;;6.82;;
64186;SDS011;50491;39.484;-8.540;2022-12-18T06:07:14;11.40;;;6.65;;
64186;SDS011;50491;39.484;-8.540;2022-12-18T06:09:14;10.93;;;6.18;;
64186;SDS011;50491;39.484;-8.540;2022-12-18T06:11:52;8.75;;;6.32;;
64186;SDS011;50491;39.484;-8.540;2022-12-18T06:14:30;8.57;;;6.65;;
64186;SDS011;50491;39.484;-8.540;2022-12-18T06:16:31;9.63;;;6.15;;
64186;SDS011;50491;39.484;-8.540;2022-12-18T06:26:25;11.07;;;6.85;;
64186;SDS011;50491;39.484;-8.540;2022-12-18T06:28:45;11.85;;;7.25;;
64186;SDS011;50491;39.484;-8.540;2022-12-18T06:30:46;12.48;;;7.45;;
64186;SDS011;50491;39.484;-8.540;2022-12-18T06:33:12;10.73;;;7.03;;
64186;SDS011;50491;39.484;-8.540;2022-12-18T06:37:50;12.15;;;7.05;;
64186;SDS011;50491;39.484;-8.540;2022-12-18T06:42:48;12.27;;;6.93;;
64186;SDS011;50491;39.484;-8.540;2022-12-18T06:45:07;8.35;;;5.97;;
64186;SDS011;50491;39.484;-8.540;2022-12-18T06:47:08;7.38;;;5.40;;
64186;SDS011;50491;39.484;-8.540;2022-12-18T06:49:08;13.55;;;6.85;;
64186;SDS011;50491;39.484;-8.540;2022-12-18T06:51:09;8.98;;;6.30;;
64186;SDS011;50491;39.484;-8.540;2022-12-18T06:53:10;8.65;;;6.57;;
64186;SDS011;50491;39.484;-8.540;2022-12-18T06:55:35;8.80;;;6.00;;
64186;SDS011;50491;39.484;-8.540;2022-12-18T06:57:36;6.80;;;5.45;;
64186;SDS011;50491;39.484;-8.540;2022-12-18T06:59:37;8.45;;;5.70;;
64186;SDS011;50491;39.484;-8.540;2022-12-18T07:01:38;6.90;;;5.78;;
64186;SDS011;50491;39.484;-8.540;2022-12-18T07:03:39;6.45;;;5.38;;
64186;SDS011;50491;39.484;-8.540;2022-12-18T07:05:40;8.95;;;5.40;;
64186;SDS011;50491;39.484;-8.540;2022-12-18T07:07:41;16.00;;;7.05;;
64186;SDS011;50491;39.484;-8.540;2022-12-18T07:09:42;8.90;;;5.80;;
64186;SDS011;50491;39.484;-8.540;2022-12-18T07:12:01;7.93;;;5.13;;
64186;SDS011;50491;39.484;-8.540;2022-12-18T07:14:01;8.35;;;5.53;;
64186;SDS011;50491;39.484;-8.540;2022-12-18T07:16:20;7.13;;;5.43;;
64186;SDS011;50491;39.484;-8.540;2022-12-18T07:18:21;7.65;;;5.07;;
64186;SDS011;50491;39.484;-8.540;2022-12-18T07:20:40;8.07;;;5.75;;
64186;SDS011;50491;39.484;-8.540;2022-12-18T07:23:01;7.60;;;5.15;;
64186;SDS011;50491;39.484;-8.540;2022-12-18T07:25:02;6.15;;;4.85;;
64186;SDS011;50491;39.484;-8.540;2022-12-18T07:27:03;9.32;;;5.00;;
64186;SDS011;50491;39.484;-8.540;2022-12-18T07:29:04;6.68;;;5.18;;
64186;SDS011;50491;39.484;-8.540;2022-12-18T07:31:05;5.88;;;5.13;;
64186;SDS011;50491;39.484;-8.540;2022-12-18T07:33:07;10.20;;;5.50;;
64186;SDS011;50491;39.484;-8.540;2022-12-18T07:35:26;7.78;;;5.28;;
64186;SDS011;50491;39.484;-8.540;2022-12-18T07:37:27;6.65;;;4.70;;
64186;SDS011;50491;39.484;-8.540;2022-12-18T07:39:28;5.28;;;4.65;;
64186;SDS011;50491;39.484;-8.540;2022-12-18T07:41:28;5.53;;;4.93;;
64186;SDS011;50491;39.484;-8.540;2022-12-18T07:43:29;6.75;;;4.70;;
64186;SDS011;50491;39.484;-8.540;2022-12-18T07:45:30;6.20;;;4.65;;
64186;SDS011;50491;39.484;-8.540;2022-12-18T07:47:30;5.47;;;4.90;;
64186;SDS011;50491;39.484;-8.540;2022-12-18T07:49:31;7.15;;;5.22;;
64186;SDS011;50491;39.484;-8.540;2022-12-18T07:53:51;6.05;;;5.07;;
64186;SDS011;50491;39.484;-8.540;2022-12-18T07:55:55;6.40;;;4.30;;
64186;SDS011;50491;39.484;-8.540;2022-12-18T07:58:02;9.52;;;5.13;;
64186;SDS011;50491;39.484;-8.540;2022-12-18T08:00:22;4.93;;;4.15;;
64186;SDS011;50491;39.484;-8.540;2022-12-18T08:02:22;7.38;;;4.60;;
64186;SDS011;50491;39.484;-8.540;2022-12-18T08:04:23;9.13;;;5.07;;
64186;SDS011;50491;39.484;-8.540;2022-12-18T08:11:58;4.38;;;3.83;;
64186;SDS011;50491;39.484;-8.540;2022-12-18T08:18:55;6.95;;;4.57;;
64186;SDS011;50491;39.484;-8.540;2022-12-18T08:21:18;6.07;;;4.53;;
64186;SDS011;50491;39.484;-8.540;2022-12-18T08:23:41;6.38;;;4.63;;
64186;SDS011;50491;39.484;-8.540;2022-12-18T08:26:01;5.55;;;4.25;;
64186;SDS011;50491;39.484;-8.540;2022-12-18T08:28:20;4.95;;;3.92;;
64186;SDS011;50491;39.484;-8.540;2022-12-18T08:30:20;6.20;;;4.75;;
64186;SDS011;50491;39.484;-8.540;2022-12-18T08:32:21;5.82;;;4.55;;
64186;SDS011;50491;39.484;-8.540;2022-12-18T08:34:22;7.95;;;5.32;;
64186;SDS011;50491;39.484;-8.540;2022-12-18T08:36:23;7.00;;;5.38;;
64186;SDS011;50491;39.484;-8.540;2022-12-18T08:41:03;8.82;;;5.30;;
64186;SDS011;50491;39.484;-8.540;2022-12-18T08:43:22;5.95;;;4.28;;
64186;SDS011;50491;39.484;-8.540;2022-12-18T08:48:18;7.97;;;4.85;;
64186;SDS011;50491;39.484;-8.540;2022-12-18T08:50:19;5.97;;;4.70;;
64186;SDS011;50491;39.484;-8.540;2022-12-18T08:52:38;7.25;;;5.05;;
64186;SDS011;50491;39.484;-8.540;2022-12-18T08:54:39;8.50;;;4.60;;
64186;SDS011;50491;39.484;-8.540;2022-12-18T08:56:58;7.43;;;5.30;;
64186;SDS011;50491;39.484;-8.540;2022-12-18T08:58:59;5.22;;;3.63;;
64186;SDS011;50491;39.484;-8.540;2022-12-18T09:03:37;6.55;;;4.65;;
64186;SDS011;50491;39.484;-8.540;2022-12-18T09:06:04;7.57;;;5.30;;
64186;SDS011;50491;39.484;-8.540;2022-12-18T09:10:49;8.25;;;4.25;;
64186;SDS011;50491;39.484;-8.540;2022-12-18T09:12:50;5.85;;;4.50;;
64186;SDS011;50491;39.484;-8.540;2022-12-18T09:15:09;5.75;;;4.20;;
64186;SDS011;50491;39.484;-8.540;2022-12-18T09:17:10;5.93;;;4.20;;
64186;SDS011;50491;39.484;-8.540;2022-12-18T09:19:35;5.75;;;4.35;;
64186;SDS011;50491;39.484;-8.540;2022-12-18T09:21:37;5.00;;;4.10;;
64186;SDS011;50491;39.484;-8.540;2022-12-18T09:23:41;8.98;;;4.22;;
64186;SDS011;50491;39.484;-8.540;2022-12-18T09:25:42;7.45;;;3.80;;
64186;SDS011;50491;39.484;-8.540;2022-12-18T09:27:42;7.82;;;5.25;;
64186;SDS011;50491;39.484;-8.540;2022-12-18T09:30:02;5.88;;;4.43;;
64186;SDS011;50491;39.484;-8.540;2022-12-18T09:32:03;7.25;;;3.90;;
64186;SDS011;50491;39.484;-8.540;2022-12-18T09:34:04;6.03;;;3.30;;
64186;SDS011;50491;39.484;-8.540;2022-12-18T09:36:07;6.20;;;3.75;;
64186;SDS011;50491;39.484;-8.540;2022-12-18T09:38:13;5.20;;;3.70;;
64186;SDS011;50491;39.484;-8.540;2022-12-18T09:40:18;4.82;;;3.75;;
64186;SDS011;50491;39.484;-8.540;2022-12-18T09:42:39;6.57;;;3.40;;
64186;SDS011;50491;39.484;-8.540;2022-12-18T09:44:58;5.03;;;3.22;;
64186;SDS011;50491;39.484;-8.540;2022-12-18T09:49:35;6.07;;;4.25;;
64186;SDS011;50491;39.484;-8.540;2022-12-18T09:51:59;5.63;;;3.80;;
64186;SDS011;50491;39.484;-8.540;2022-12-18T09:54:05;6.15;;;3.50;;
64186;SDS011;50491;39.484;-8.540;2022-12-18T09:56:34;5.68;;;3.17;;
64186;SDS011;50491;39.484;-8.540;2022-12-18T09:58:46;6.88;;;3.25;;
64186;SDS011;50491;39.484;-8.540;2022-12-18T10:01:25;8.82;;;4.30;;
64186;SDS011;50491;39.484;-8.540;2022-12-18T10:03:27;5.85;;;3.83;;
64186;SDS011;50491;39.484;-8.540;2022-12-18T10:13:38;9.20;;;4.78;;
64186;SDS011;50491;39.484;-8.540;2022-12-18T10:15:47;5.88;;;4.10;;
64186;SDS011;50491;39.484;-8.540;2022-12-18T10:18:29;10.73;;;4.20;;
64186;SDS011;50491;39.484;-8.540;2022-12-18T10:20:36;5.78;;;3.78;;
64186;SDS011;50491;39.484;-8.540;2022-12-18T10:26:12;7.93;;;4.10;;
64186;SDS011;50491;39.484;-8.540;2022-12-18T10:31:27;4.63;;;2.80;;
64186;SDS011;50491;39.484;-8.540;2022-12-18T10:33:29;3.67;;;2.22;;
64186;SDS011;50491;39.484;-8.540;2022-12-18T10:35:31;4.38;;;2.72;;
64186;SDS011;50491;39.484;-8.540;2022-12-18T10:37:32;5.80;;;2.47;;
64186;SDS011;50491;39.484;-8.540;2022-12-18T10:40:11;6.57;;;2.20;;
64186;SDS011;50491;39.484;-8.540;2022-12-18T10:42:17;8.95;;;2.47;;
64186;SDS011;50491;39.484;-8.540;2022-12-18T10:44:20;8.13;;;2.35;;
64186;SDS011;50491;39.484;-8.540;2022-12-18T10:46:22;5.10;;;2.78;;
64186;SDS011;50491;39.484;-8.540;2022-12-18T10:51:29;5.55;;;2.25;;
64186;SDS011;50491;39.484;-8.540;2022-12-18T10:53:34;4.13;;;2.53;;
64186;SDS011;50491;39.484;-8.540;2022-12-18T10:55:37;3.72;;;2.60;;
64186;SDS011;50491;39.484;-8.540;2022-12-18T10:57:39;5.53;;;2.40;;
64186;SDS011;50491;39.484;-8.540;2022-12-18T10:59:50;8.45;;;2.35;;
64186;SDS011;50491;39.484;-8.540;2022-12-18T11:02:24;5.60;;;2.28;;
64186;SDS011;50491;39.484;-8.540;2022-12-18T11:04:33;4.72;;;1.60;;
64186;SDS011;50491;39.484;-8.540;2022-12-18T11:06:35;3.17;;;2.13;;
64186;SDS011;50491;39.484;-8.540;2022-12-18T11:09:06;6.18;;;2.00;;
64186;SDS011;50491;39.484;-8.540;2022-12-18T11:11:20;4.65;;;2.70;;
64186;SDS011;50491;39.484;-8.540;2022-12-18T11:13:29;7.45;;;2.47;;
64186;SDS011;50491;39.484;-8.540;2022-12-18T11:15:30;3.33;;;2.00;;
64186;SDS011;50491;39.484;-8.540;2022-12-18T11:17:55;3.60;;;2.47;;
64186;SDS011;50491;39.484;-8.540;2022-12-18T11:19:59;5.20;;;2.10;;
64186;SDS011;50491;39.484;-8.540;2022-12-18T11:22:20;3.83;;;1.77;;
64186;SDS011;50491;39.484;-8.540;2022-12-18T11:26:51;5.72;;;2.92;;
64186;SDS011;50491;39.484;-8.540;2022-12-18T11:28:52;2.90;;;2.30;;
64186;SDS011;50491;39.484;-8.540;2022-12-18T11:33:16;5.75;;;2.40;;
64186;SDS011;50491;39.484;-8.540;2022-12-18T11:37:53;9.07;;;2.58;;
64186;SDS011;50491;39.484;-8.540;2022-12-18T11:39:59;6.43;;;2.35;;
64186;SDS011;50491;39.484;-8.540;2022-12-18T11:56:43;4.85;;;2.20;;
64186;SDS011;50491;39.484;-8.540;2022-12-18T11:59:03;3.80;;;2.42;;
64186;SDS011;50491;39.484;-8.540;2022-12-18T12:01:13;6.32;;;2.65;;
64186;SDS011;50491;39.484;-8.540;2022-12-18T12:20:02;8.95;;;3.80;;
64186;SDS011;50491;39.484;-8.540;2022-12-18T12:22:20;4.80;;;2.70;;
64186;SDS011;50491;39.484;-8.540;2022-12-18T12:24:42;5.45;;;3.13;;
64186;SDS011;50491;39.484;-8.540;2022-12-18T12:31:46;5.63;;;2.50;;
64186;SDS011;50491;39.484;-8.540;2022-12-18T12:39:01;5.35;;;2.33;;
64186;SDS011;50491;39.484;-8.540;2022-12-18T12:41:25;4.13;;;2.40;;
64186;SDS011;50491;39.484;-8.540;2022-12-18T12:44:05;6.38;;;2.47;;
64186;SDS011;50491;39.484;-8.540;2022-12-18T12:46:09;2.78;;;1.95;;
64186;SDS011;50491;39.484;-8.540;2022-12-18T12:48:13;2.53;;;1.70;;
64186;SDS011;50491;39.484;-8.540;2022-12-18T12:50:18;3.08;;;1.50;;
64186;SDS011;50491;39.484;-8.540;2022-12-18T13:05:54;2.88;;;1.73;;
64186;SDS011;50491;39.484;-8.540;2022-12-18T13:08:03;3.92;;;2.38;;
64186;SDS011;50491;39.484;-8.540;2022-12-18T13:11:01;2.03;;;1.65;;
64186;SDS011;50491;39.484;-8.540;2022-12-18T13:13:15;1.77;;;1.67;;
64186;SDS011;50491;39.484;-8.540;2022-12-18T13:15:23;1.88;;;1.50;;
64186;SDS011;50491;39.484;-8.540;2022-12-18T13:17:30;5.78;;;1.80;;
64186;SDS011;50491;39.484;-8.540;2022-12-18T13:22:22;2.75;;;1.60;;
64186;SDS011;50491;39.484;-8.540;2022-12-18T13:36:43;1.67;;;1.50;;
64186;SDS011;50491;39.484;-8.540;2022-12-18T13:39:10;2.55;;;1.45;;
64186;SDS011;50491;39.484;-8.540;2022-12-18T13:43:29;3.08;;;1.50;;
64186;SDS011;50491;39.484;-8.540;2022-12-18T13:45:40;2.20;;;1.80;;
64186;SDS011;50491;39.484;-8.540;2022-12-18T13:47:41;4.35;;;1.60;;
64186;SDS011;50491;39.484;-8.540;2022-12-18T13:52:58;3.17;;;1.63;;
64186;SDS011;50491;39.484;-8.540;2022-12-18T13:54:59;5.00;;;1.67;;
64186;SDS011;50491;39.484;-8.540;2022-12-18T13:57:02;6.00;;;2.15;;
64186;SDS011;50491;39.484;-8.540;2022-12-18T13:59:25;7.10;;;1.70;;
64186;SDS011;50491;39.484;-8.540;2022-12-18T14:01:26;6.22;;;1.98;;
64186;SDS011;50491;39.484;-8.540;2022-12-18T14:09:15;1.92;;;1.15;;
64186;SDS011;50491;39.484;-8.540;2022-12-18T14:11:20;11.32;;;1.55;;
64186;SDS011;50491;39.484;-8.540;2022-12-18T14:13:33;4.85;;;1.60;;
64186;SDS011;50491;39.484;-8.540;2022-12-18T14:15:56;2.60;;;1.55;;
64186;SDS011;50491;39.484;-8.540;2022-12-18T14:17:57;3.40;;;1.45;;
64186;SDS011;50491;39.484;-8.540;2022-12-18T14:19:59;5.00;;;1.90;;
64186;SDS011;50491;39.484;-8.540;2022-12-18T14:22:00;3.10;;;1.70;;
64186;SDS011;50491;39.484;-8.540;2022-12-18T14:29:51;3.42;;;1.40;;
64186;SDS011;50491;39.484;-8.540;2022-12-18T14:32:11;3.78;;;1.27;;
64186;SDS011;50491;39.484;-8.540;2022-12-18T14:34:50;2.45;;;1.50;;
64186;SDS011;50491;39.484;-8.540;2022-12-18T14:39:16;3.53;;;1.80;;
64186;SDS011;50491;39.484;-8.540;2022-12-18T14:41:36;3.67;;;1.67;;
64186;SDS011;50491;39.484;-8.540;2022-12-18T14:43:38;3.90;;;1.70;;
64186;SDS011;50491;39.484;-8.540;2022-12-18T14:45:40;2.63;;;1.45;;
64186;SDS011;50491;39.484;-8.540;2022-12-18T14:47:43;5.20;;;2.13;;
64186;SDS011;50491;39.484;-8.540;2022-12-18T14:49:44;2.33;;;1.73;;
64186;SDS011;50491;39.484;-8.540;2022-12-18T14:52:05;2.95;;;1.50;;
64186;SDS011;50491;39.484;-8.540;2022-12-18T14:54:25;3.20;;;1.85;;
64186;SDS011;50491;39.484;-8.540;2022-12-18T14:56:31;8.25;;;1.90;;
64186;SDS011;50491;39.484;-8.540;2022-12-18T14:58:55;2.97;;;1.58;;
64186;SDS011;50491;39.484;-8.540;2022-12-18T15:01:32;3.03;;;1.67;;
64186;SDS011;50491;39.484;-8.540;2022-12-18T15:03:53;2.80;;;1.75;;
64186;SDS011;50491;39.484;-8.540;2022-12-18T15:05:54;4.65;;;2.28;;
64186;SDS011;50491;39.484;-8.540;2022-12-18T15:07:56;5.03;;;1.77;;
64186;SDS011;50491;39.484;-8.540;2022-12-18T15:12:34;4.80;;;1.90;;
64186;SDS011;50491;39.484;-8.540;2022-12-18T15:14:56;8.80;;;2.10;;
64186;SDS011;50491;39.484;-8.540;2022-12-18T15:16:57;10.68;;;2.85;;
64186;SDS011;50491;39.484;-8.540;2022-12-18T15:21:37;3.65;;;1.88;;
64186;SDS011;50491;39.484;-8.540;2022-12-18T15:29:20;2.33;;;1.83;;
64186;SDS011;50491;39.484;-8.540;2022-12-18T15:31:39;3.95;;;1.92;;
64186;SDS011;50491;39.484;-8.540;2022-12-18T15:34:00;3.03;;;2.70;;
64186;SDS011;50491;39.484;-8.540;2022-12-18T15:36:23;8.07;;;2.60;;
64186;SDS011;50491;39.484;-8.540;2022-12-18T15:38:24;4.07;;;1.73;;
64186;SDS011;50491;39.484;-8.540;2022-12-18T15:40:48;5.90;;;3.40;;
64186;SDS011;50491;39.484;-8.540;2022-12-18T15:42:50;6.95;;;1.77;;
64186;SDS011;50491;39.484;-8.540;2022-12-18T15:45:29;4.63;;;2.13;;
64186;SDS011;50491;39.484;-8.540;2022-12-18T15:47:30;3.70;;;1.83;;
64186;SDS011;50491;39.484;-8.540;2022-12-18T15:49:32;4.65;;;2.00;;
64186;SDS011;50491;39.484;-8.540;2022-12-18T15:51:34;7.72;;;1.48;;
64186;SDS011;50491;39.484;-8.540;2022-12-18T15:53:55;4.55;;;1.85;;
64186;SDS011;50491;39.484;-8.540;2022-12-18T15:56:21;3.00;;;2.13;;
64186;SDS011;50491;39.484;-8.540;2022-12-18T15:58:41;6.85;;;2.83;;
64186;SDS011;50491;39.484;-8.540;2022-12-18T16:00:41;7.15;;;3.45;;
64186;SDS011;50491;39.484;-8.540;2022-12-18T16:02:42;5.95;;;3.00;;
64186;SDS011;50491;39.484;-8.540;2022-12-18T16:05:01;5.18;;;2.70;;
64186;SDS011;50491;39.484;-8.540;2022-12-18T16:07:20;4.85;;;3.28;;
64186;SDS011;50491;39.484;-8.540;2022-12-18T16:09:21;3.42;;;2.15;;
64186;SDS011;50491;39.484;-8.540;2022-12-18T16:11:41;9.02;;;2.30;;